sensor_id;sensor_type;location;lat;lon;timestamp;temperature;humidity
7214;DHT22;3648;50.614;13.830;2022-10-03T00:00:07;11.90;1.00
7214;DHT22;3648;50.614;13.830;2022-10-03T00:02:51;11.90;1.00
7214;DHT22;3648;50.614;13.830;2022-10-03T00:05:30;11.90;1.00
7214;DHT22;3648;50.614;13.830;2022-10-03T00:08:11;11.90;1.00
7214;DHT22;3648;50.614;13.830;2022-10-03T00:10:52;11.90;1.00
7214;DHT22;3648;50.614;13.830;2022-10-03T00:13:26;11.90;1.00
7214;DHT22;3648;50.614;13.830;2022-10-03T00:16:04;11.90;1.00
7214;DHT22;3648;50.614;13.830;2022-10-03T00:18:44;11.90;1.00
7214;DHT22;3648;50.614;13.830;2022-10-03T00:21:29;11.90;1.00
7214;DHT22;3648;50.614;13.830;2022-10-03T00:24:10;11.90;1.00
7214;DHT22;3648;50.614;13.830;2022-10-03T00:26:47;11.90;1.00
7214;DHT22;3648;50.614;13.830;2022-10-03T00:29:28;11.90;1.00
7214;DHT22;3648;50.614;13.830;2022-10-03T00:32:11;11.90;1.00
7214;DHT22;3648;50.614;13.830;2022-10-03T00:34:56;11.80;1.00
7214;DHT22;3648;50.614;13.830;2022-10-03T00:37:31;11.80;1.00
7214;DHT22;3648;50.614;13.830;2022-10-03T00:43:47;11.80;1.00
7214;DHT22;3648;50.614;13.830;2022-10-03T00:46:46;11.80;1.00
7214;DHT22;3648;50.614;13.830;2022-10-03T00:49:50;11.70;1.00
7214;DHT22;3648;50.614;13.830;2022-10-03T00:52:33;11.70;1.00
7214;DHT22;3648;50.614;13.830;2022-10-03T00:55:14;11.70;1.00
7214;DHT22;3648;50.614;13.830;2022-10-03T00:58:02;11.70;1.00
7214;DHT22;3648;50.614;13.830;2022-10-03T01:00:31;11.70;1.00
7214;DHT22;3648;50.614;13.830;2022-10-03T01:03:13;11.70;1.00
7214;DHT22;3648;50.614;13.830;2022-10-03T01:05:58;11.70;1.00
7214;DHT22;3648;50.614;13.830;2022-10-03T01:08:57;11.60;1.00
7214;DHT22;3648;50.614;13.830;2022-10-03T01:11:50;11.60;1.00
7214;DHT22;3648;50.614;13.830;2022-10-03T01:14:44;11.50;1.00
7214;DHT22;3648;50.614;13.830;2022-10-03T01:17:18;11.50;1.00
7214;DHT22;3648;50.614;13.830;2022-10-03T01:20:05;11.50;1.00
7214;DHT22;3648;50.614;13.830;2022-10-03T01:23:06;11.50;1.00
7214;DHT22;3648;50.614;13.830;2022-10-03T01:25:46;11.50;1.00
7214;DHT22;3648;50.614;13.830;2022-10-03T01:28:43;11.40;1.00
7214;DHT22;3648;50.614;13.830;2022-10-03T01:31:33;11.40;1.00
7214;DHT22;3648;50.614;13.830;2022-10-03T01:34:09;11.40;1.00
7214;DHT22;3648;50.614;13.830;2022-10-03T01:36:40;11.40;1.00
7214;DHT22;3648;50.614;13.830;2022-10-03T01:39:15;11.40;1.00
7214;DHT22;3648;50.614;13.830;2022-10-03T01:41:51;11.40;1.00
7214;DHT22;3648;50.614;13.830;2022-10-03T01:44:32;11.40;1.00
7214;DHT22;3648;50.614;13.830;2022-10-03T01:47:16;11.40;1.00
7214;DHT22;3648;50.614;13.830;2022-10-03T01:49:50;11.40;1.00
7214;DHT22;3648;50.614;13.830;2022-10-03T01:52:26;11.30;1.00
7214;DHT22;3648;50.614;13.830;2022-10-03T01:55:00;11.30;1.00
7214;DHT22;3648;50.614;13.830;2022-10-03T01:57:34;11.30;1.00
7214;DHT22;3648;50.614;13.830;2022-10-03T02:00:10;11.30;1.00
7214;DHT22;3648;50.614;13.830;2022-10-03T02:02:43;11.40;1.00
7214;DHT22;3648;50.614;13.830;2022-10-03T02:05:17;11.40;1.00
7214;DHT22;3648;50.614;13.830;2022-10-03T02:07:51;11.40;1.00
7214;DHT22;3648;50.614;13.830;2022-10-03T02:10:31;11.40;1.00
7214;DHT22;3648;50.614;13.830;2022-10-03T02:13:08;11.40;1.00
7214;DHT22;3648;50.614;13.830;2022-10-03T02:15:49;11.30;1.00
7214;DHT22;3648;50.614;13.830;2022-10-03T02:18:27;11.40;1.00
7214;DHT22;3648;50.614;13.830;2022-10-03T02:21:04;11.40;1.00
7214;DHT22;3648;50.614;13.830;2022-10-03T02:23:39;11.30;1.00
7214;DHT22;3648;50.614;13.830;2022-10-03T02:26:44;11.30;1.00
7214;DHT22;3648;50.614;13.830;2022-10-03T02:29:37;11.30;1.00
7214;DHT22;3648;50.614;13.830;2022-10-03T02:35:24;11.30;1.00
7214;DHT22;3648;50.614;13.830;2022-10-03T02:38:22;11.30;1.00
7214;DHT22;3648;50.614;13.830;2022-10-03T02:41:12;11.30;1.00
7214;DHT22;3648;50.614;13.830;2022-10-03T02:44:08;11.30;1.00
7214;DHT22;3648;50.614;13.830;2022-10-03T02:47:07;11.20;1.00
7214;DHT22;3648;50.614;13.830;2022-10-03T02:53:34;11.20;1.00
7214;DHT22;3648;50.614;13.830;2022-10-03T03:11:39;11.10;1.00
7214;DHT22;3648;50.614;13.830;2022-10-03T03:17:28;11.10;1.00
7214;DHT22;3648;50.614;13.830;2022-10-03T03:20:22;11.10;1.00
7214;DHT22;3648;50.614;13.830;2022-10-03T03:23:03;11.00;1.00
7214;DHT22;3648;50.614;13.830;2022-10-03T03:25:50;11.10;1.00
7214;DHT22;3648;50.614;13.830;2022-10-03T03:28:27;11.00;1.00
7214;DHT22;3648;50.614;13.830;2022-10-03T03:31:03;11.00;1.00
7214;DHT22;3648;50.614;13.830;2022-10-03T03:33:43;11.10;1.00
7214;DHT22;3648;50.614;13.830;2022-10-03T03:36:22;11.10;1.00
7214;DHT22;3648;50.614;13.830;2022-10-03T03:38:59;11.10;1.00
7214;DHT22;3648;50.614;13.830;2022-10-03T03:41:41;11.10;1.00
7214;DHT22;3648;50.614;13.830;2022-10-03T03:44:29;11.10;1.00
7214;DHT22;3648;50.614;13.830;2022-10-03T03:47:15;11.10;1.00
7214;DHT22;3648;50.614;13.830;2022-10-03T03:50:02;11.10;1.00
7214;DHT22;3648;50.614;13.830;2022-10-03T03:52:49;11.10;1.00
7214;DHT22;3648;50.614;13.830;2022-10-03T03:55:44;11.10;1.00
7214;DHT22;3648;50.614;13.830;2022-10-03T03:58:24;11.10;1.00
7214;DHT22;3648;50.614;13.830;2022-10-03T04:01:20;11.10;1.00
7214;DHT22;3648;50.614;13.830;2022-10-03T04:03:59;11.10;1.00
7214;DHT22;3648;50.614;13.830;2022-10-03T04:06:43;11.10;1.00
7214;DHT22;3648;50.614;13.830;2022-10-03T04:09:28;11.10;1.00
7214;DHT22;3648;50.614;13.830;2022-10-03T04:12:03;11.00;1.00
7214;DHT22;3648;50.614;13.830;2022-10-03T04:14:47;11.00;1.00
7214;DHT22;3648;50.614;13.830;2022-10-03T04:20:33;11.10;1.00
7214;DHT22;3648;50.614;13.830;2022-10-03T04:23:15;11.10;1.00
7214;DHT22;3648;50.614;13.830;2022-10-03T04:25:56;11.10;1.00
7214;DHT22;3648;50.614;13.830;2022-10-03T04:28:39;11.10;1.00
7214;DHT22;3648;50.614;13.830;2022-10-03T04:31:29;11.20;1.00
7214;DHT22;3648;50.614;13.830;2022-10-03T04:34:19;11.10;1.00
7214;DHT22;3648;50.614;13.830;2022-10-03T04:37:23;11.20;1.00
7214;DHT22;3648;50.614;13.830;2022-10-03T04:40:05;11.10;1.00
7214;DHT22;3648;50.614;13.830;2022-10-03T04:42:42;11.10;1.00
7214;DHT22;3648;50.614;13.830;2022-10-03T04:45:25;11.10;1.00
7214;DHT22;3648;50.614;13.830;2022-10-03T04:48:04;11.10;1.00
7214;DHT22;3648;50.614;13.830;2022-10-03T04:50:39;11.10;1.00
7214;DHT22;3648;50.614;13.830;2022-10-03T04:53:28;11.10;1.00
7214;DHT22;3648;50.614;13.830;2022-10-03T04:56:33;11.10;1.00
7214;DHT22;3648;50.614;13.830;2022-10-03T04:59:18;11.10;1.00
7214;DHT22;3648;50.614;13.830;2022-10-03T05:01:53;11.10;1.00
7214;DHT22;3648;50.614;13.830;2022-10-03T05:04:26;11.10;1.00
7214;DHT22;3648;50.614;13.830;2022-10-03T05:07:03;11.10;1.00
7214;DHT22;3648;50.614;13.830;2022-10-03T05:09:40;11.20;1.00
7214;DHT22;3648;50.614;13.830;2022-10-03T05:12:14;11.10;1.00
7214;DHT22;3648;50.614;13.830;2022-10-03T05:15:01;11.10;1.00
7214;DHT22;3648;50.614;13.830;2022-10-03T05:17:41;11.20;1.00
7214;DHT22;3648;50.614;13.830;2022-10-03T05:20:19;11.20;1.00
7214;DHT22;3648;50.614;13.830;2022-10-03T05:23:00;11.10;1.00
7214;DHT22;3648;50.614;13.830;2022-10-03T05:25:43;11.10;1.00
7214;DHT22;3648;50.614;13.830;2022-10-03T05:28:17;11.10;1.00
7214;DHT22;3648;50.614;13.830;2022-10-03T05:30:52;11.10;1.00
7214;DHT22;3648;50.614;13.830;2022-10-03T05:33:36;11.10;1.00
7214;DHT22;3648;50.614;13.830;2022-10-03T05:36:12;11.10;1.00
7214;DHT22;3648;50.614;13.830;2022-10-03T05:42:25;11.00;1.00
7214;DHT22;3648;50.614;13.830;2022-10-03T05:45:02;10.90;1.00
7214;DHT22;3648;50.614;13.830;2022-10-03T05:47:32;11.00;1.00
7214;DHT22;3648;50.614;13.830;2022-10-03T05:50:48;11.00;1.00
7214;DHT22;3648;50.614;13.830;2022-10-03T05:56:45;11.00;1.00
7214;DHT22;3648;50.614;13.830;2022-10-03T05:59:37;11.00;1.00
7214;DHT22;3648;50.614;13.830;2022-10-03T06:02:51;11.00;1.00
7214;DHT22;3648;50.614;13.830;2022-10-03T06:05:28;11.10;1.00
7214;DHT22;3648;50.614;13.830;2022-10-03T06:11:16;11.10;1.00
7214;DHT22;3648;50.614;13.830;2022-10-03T06:14:17;11.10;1.00
7214;DHT22;3648;50.614;13.830;2022-10-03T06:17:01;11.20;1.00
7214;DHT22;3648;50.614;13.830;2022-10-03T06:19:46;11.20;1.00
7214;DHT22;3648;50.614;13.830;2022-10-03T06:25:56;11.20;1.00
7214;DHT22;3648;50.614;13.830;2022-10-03T06:31:55;11.20;1.00
7214;DHT22;3648;50.614;13.830;2022-10-03T06:40:54;11.30;1.00
7214;DHT22;3648;50.614;13.830;2022-10-03T06:43:50;11.30;1.00
7214;DHT22;3648;50.614;13.830;2022-10-03T06:53:09;11.40;1.00
7214;DHT22;3648;50.614;13.830;2022-10-03T06:56:06;11.40;1.00
7214;DHT22;3648;50.614;13.830;2022-10-03T06:59:01;11.40;1.00
7214;DHT22;3648;50.614;13.830;2022-10-03T07:08:12;11.50;1.00
7214;DHT22;3648;50.614;13.830;2022-10-03T07:10:55;11.50;1.00
7214;DHT22;3648;50.614;13.830;2022-10-03T07:19:40;11.40;1.00
7214;DHT22;3648;50.614;13.830;2022-10-03T07:25:47;11.50;1.00
7214;DHT22;3648;50.614;13.830;2022-10-03T07:28:55;11.50;1.00
7214;DHT22;3648;50.614;13.830;2022-10-03T07:31:41;11.50;1.00
7214;DHT22;3648;50.614;13.830;2022-10-03T07:35:01;11.60;1.00
7214;DHT22;3648;50.614;13.830;2022-10-03T07:37:42;11.60;1.00
7214;DHT22;3648;50.614;13.830;2022-10-03T07:44:06;11.90;1.00
7214;DHT22;3648;50.614;13.830;2022-10-03T07:47:09;11.90;1.00
7214;DHT22;3648;50.614;13.830;2022-10-03T07:50:20;11.90;1.00
7214;DHT22;3648;50.614;13.830;2022-10-03T07:56:13;11.90;1.00
7214;DHT22;3648;50.614;13.830;2022-10-03T08:01:55;12.00;1.00
7214;DHT22;3648;50.614;13.830;2022-10-03T08:04:49;12.10;1.00
7214;DHT22;3648;50.614;13.830;2022-10-03T08:07:43;12.30;1.00
7214;DHT22;3648;50.614;13.830;2022-10-03T08:10:25;12.40;1.00
7214;DHT22;3648;50.614;13.830;2022-10-03T08:13:22;12.40;1.00
7214;DHT22;3648;50.614;13.830;2022-10-03T08:16:05;12.40;1.00
7214;DHT22;3648;50.614;13.830;2022-10-03T08:21:52;12.40;1.00
7214;DHT22;3648;50.614;13.830;2022-10-03T08:24:51;12.30;1.00
7214;DHT22;3648;50.614;13.830;2022-10-03T08:27:40;12.30;1.00
7214;DHT22;3648;50.614;13.830;2022-10-03T08:30:23;12.30;1.00
7214;DHT22;3648;50.614;13.830;2022-10-03T08:33:03;12.40;1.00
7214;DHT22;3648;50.614;13.830;2022-10-03T08:36:07;12.40;1.00
7214;DHT22;3648;50.614;13.830;2022-10-03T08:38:53;12.40;1.00
7214;DHT22;3648;50.614;13.830;2022-10-03T08:44:50;12.40;1.00
7214;DHT22;3648;50.614;13.830;2022-10-03T08:47:33;12.30;1.00
7214;DHT22;3648;50.614;13.830;2022-10-03T08:50:35;12.30;1.00
7214;DHT22;3648;50.614;13.830;2022-10-03T08:56:24;12.20;1.00
7214;DHT22;3648;50.614;13.830;2022-10-03T08:59:27;12.20;1.00
7214;DHT22;3648;50.614;13.830;2022-10-03T09:05:55;12.40;1.00
7214;DHT22;3648;50.614;13.830;2022-10-03T09:12:02;12.50;1.00
7214;DHT22;3648;50.614;13.830;2022-10-03T09:14:57;12.50;1.00
7214;DHT22;3648;50.614;13.830;2022-10-03T09:18:08;12.60;1.00
7214;DHT22;3648;50.614;13.830;2022-10-03T09:21:03;12.60;1.00
7214;DHT22;3648;50.614;13.830;2022-10-03T09:24:06;12.70;1.00
7214;DHT22;3648;50.614;13.830;2022-10-03T09:27:17;12.80;1.00
7214;DHT22;3648;50.614;13.830;2022-10-03T09:30:15;12.80;1.00
7214;DHT22;3648;50.614;13.830;2022-10-03T09:36:19;12.80;1.00
7214;DHT22;3648;50.614;13.830;2022-10-03T09:39:39;12.90;1.00
7214;DHT22;3648;50.614;13.830;2022-10-03T09:42:35;13.00;1.00
7214;DHT22;3648;50.614;13.830;2022-10-03T09:45:54;13.00;1.00
7214;DHT22;3648;50.614;13.830;2022-10-03T09:48:46;13.00;1.00
7214;DHT22;3648;50.614;13.830;2022-10-03T09:51:28;13.00;1.00
7214;DHT22;3648;50.614;13.830;2022-10-03T09:57:36;13.20;1.00
7214;DHT22;3648;50.614;13.830;2022-10-03T10:00:19;13.30;1.00
7214;DHT22;3648;50.614;13.830;2022-10-03T10:06:35;13.30;1.00
7214;DHT22;3648;50.614;13.830;2022-10-03T10:09:25;13.20;1.00
7214;DHT22;3648;50.614;13.830;2022-10-03T10:12:24;13.10;1.00
7214;DHT22;3648;50.614;13.830;2022-10-03T10:21:48;13.00;1.00
7214;DHT22;3648;50.614;13.830;2022-10-03T10:28:10;13.20;1.00
7214;DHT22;3648;50.614;13.830;2022-10-03T10:40:42;13.50;1.00
7214;DHT22;3648;50.614;13.830;2022-10-03T10:44:16;13.60;1.00
7214;DHT22;3648;50.614;13.830;2022-10-03T10:47:39;13.80;1.00
7214;DHT22;3648;50.614;13.830;2022-10-03T10:50:48;13.80;1.00
7214;DHT22;3648;50.614;13.830;2022-10-03T10:54:09;13.90;1.00
7214;DHT22;3648;50.614;13.830;2022-10-03T10:57:09;13.90;1.00
7214;DHT22;3648;50.614;13.830;2022-10-03T11:00:15;13.80;1.00
7214;DHT22;3648;50.614;13.830;2022-10-03T11:19:12;13.70;1.00
7214;DHT22;3648;50.614;13.830;2022-10-03T11:28:33;13.70;1.00
7214;DHT22;3648;50.614;13.830;2022-10-03T11:31:39;13.60;1.00
7214;DHT22;3648;50.614;13.830;2022-10-03T11:34:49;13.70;1.00
7214;DHT22;3648;50.614;13.830;2022-10-03T11:37:37;13.90;1.00
7214;DHT22;3648;50.614;13.830;2022-10-03T11:40:24;14.00;1.00
7214;DHT22;3648;50.614;13.830;2022-10-03T11:43:12;14.10;1.00
7214;DHT22;3648;50.614;13.830;2022-10-03T11:45:46;14.20;1.00
7214;DHT22;3648;50.614;13.830;2022-10-03T11:48:34;14.20;1.00
7214;DHT22;3648;50.614;13.830;2022-10-03T11:51:07;14.30;1.00
7214;DHT22;3648;50.614;13.830;2022-10-03T11:53:44;14.50;1.00
7214;DHT22;3648;50.614;13.830;2022-10-03T11:56:23;14.50;1.00
7214;DHT22;3648;50.614;13.830;2022-10-03T12:04:45;14.70;1.00
7214;DHT22;3648;50.614;13.830;2022-10-03T12:07:26;14.70;1.00
7214;DHT22;3648;50.614;13.830;2022-10-03T12:10:20;14.80;1.00
7214;DHT22;3648;50.614;13.830;2022-10-03T12:12:53;14.80;1.00
7214;DHT22;3648;50.614;13.830;2022-10-03T12:15:29;14.90;1.00
7214;DHT22;3648;50.614;13.830;2022-10-03T12:18:05;15.00;1.00
7214;DHT22;3648;50.614;13.830;2022-10-03T12:23:39;14.90;1.00
7214;DHT22;3648;50.614;13.830;2022-10-03T12:26:15;14.80;1.00
7214;DHT22;3648;50.614;13.830;2022-10-03T12:28:47;14.80;1.00
7214;DHT22;3648;50.614;13.830;2022-10-03T12:31:20;14.60;1.00
7214;DHT22;3648;50.614;13.830;2022-10-03T12:33:52;14.60;1.00
7214;DHT22;3648;50.614;13.830;2022-10-03T12:36:28;14.60;1.00
7214;DHT22;3648;50.614;13.830;2022-10-03T12:39:08;14.60;1.00
7214;DHT22;3648;50.614;13.830;2022-10-03T12:41:51;14.70;1.00
7214;DHT22;3648;50.614;13.830;2022-10-03T12:44:31;14.70;1.00
7214;DHT22;3648;50.614;13.830;2022-10-03T12:47:11;14.70;1.00
7214;DHT22;3648;50.614;13.830;2022-10-03T12:49:50;14.80;1.00
7214;DHT22;3648;50.614;13.830;2022-10-03T12:52:24;14.90;1.00
7214;DHT22;3648;50.614;13.830;2022-10-03T12:55:05;14.90;1.00
7214;DHT22;3648;50.614;13.830;2022-10-03T12:58:01;14.90;1.00
7214;DHT22;3648;50.614;13.830;2022-10-03T13:00:34;14.80;1.00
7214;DHT22;3648;50.614;13.830;2022-10-03T13:03:25;14.90;1.00
7214;DHT22;3648;50.614;13.830;2022-10-03T13:06:37;15.00;1.00
7214;DHT22;3648;50.614;13.830;2022-10-03T13:09:23;14.90;1.00
7214;DHT22;3648;50.614;13.830;2022-10-03T13:12:02;14.90;1.00
7214;DHT22;3648;50.614;13.830;2022-10-03T13:17:55;14.80;1.00
7214;DHT22;3648;50.614;13.830;2022-10-03T13:20:29;14.70;1.00
7214;DHT22;3648;50.614;13.830;2022-10-03T13:23:04;14.60;1.00
7214;DHT22;3648;50.614;13.830;2022-10-03T13:25:38;14.60;1.00
7214;DHT22;3648;50.614;13.830;2022-10-03T13:28:13;14.50;1.00
7214;DHT22;3648;50.614;13.830;2022-10-03T13:30:47;14.40;1.00
7214;DHT22;3648;50.614;13.830;2022-10-03T13:33:18;14.40;1.00
7214;DHT22;3648;50.614;13.830;2022-10-03T13:35:49;14.30;1.00
7214;DHT22;3648;50.614;13.830;2022-10-03T13:41:31;14.30;1.00
7214;DHT22;3648;50.614;13.830;2022-10-03T13:44:05;14.20;1.00
7214;DHT22;3648;50.614;13.830;2022-10-03T13:46:41;14.20;1.00
7214;DHT22;3648;50.614;13.830;2022-10-03T13:49:13;14.20;1.00
7214;DHT22;3648;50.614;13.830;2022-10-03T13:51:49;14.20;1.00
7214;DHT22;3648;50.614;13.830;2022-10-03T13:54:28;14.20;1.00
7214;DHT22;3648;50.614;13.830;2022-10-03T13:57:09;14.20;1.00
7214;DHT22;3648;50.614;13.830;2022-10-03T13:59:52;14.20;1.00
7214;DHT22;3648;50.614;13.830;2022-10-03T14:02:48;14.20;1.00
7214;DHT22;3648;50.614;13.830;2022-10-03T14:05:40;14.30;1.00
7214;DHT22;3648;50.614;13.830;2022-10-03T14:08:22;14.30;1.00
7214;DHT22;3648;50.614;13.830;2022-10-03T14:11:20;14.30;1.00
7214;DHT22;3648;50.614;13.830;2022-10-03T14:14:03;14.30;1.00
7214;DHT22;3648;50.614;13.830;2022-10-03T14:16:39;14.30;1.00
7214;DHT22;3648;50.614;13.830;2022-10-03T14:19:14;14.40;1.00
7214;DHT22;3648;50.614;13.830;2022-10-03T14:22:00;14.40;1.00
7214;DHT22;3648;50.614;13.830;2022-10-03T14:24:50;14.50;1.00
7214;DHT22;3648;50.614;13.830;2022-10-03T14:27:36;14.60;1.00
7214;DHT22;3648;50.614;13.830;2022-10-03T14:30:10;14.60;1.00
7214;DHT22;3648;50.614;13.830;2022-10-03T14:32:58;14.70;1.00
7214;DHT22;3648;50.614;13.830;2022-10-03T14:35:35;14.70;1.00
7214;DHT22;3648;50.614;13.830;2022-10-03T14:38:20;14.60;1.00
7214;DHT22;3648;50.614;13.830;2022-10-03T14:41:16;14.60;1.00
7214;DHT22;3648;50.614;13.830;2022-10-03T14:47:08;14.40;1.00
7214;DHT22;3648;50.614;13.830;2022-10-03T14:49:45;14.40;1.00
7214;DHT22;3648;50.614;13.830;2022-10-03T14:52:23;14.40;1.00
7214;DHT22;3648;50.614;13.830;2022-10-03T14:54:53;14.40;1.00
7214;DHT22;3648;50.614;13.830;2022-10-03T14:57:29;14.40;1.00
7214;DHT22;3648;50.614;13.830;2022-10-03T14:59:58;14.40;1.00
7214;DHT22;3648;50.614;13.830;2022-10-03T15:02:28;14.30;1.00
7214;DHT22;3648;50.614;13.830;2022-10-03T15:05:03;14.30;1.00
7214;DHT22;3648;50.614;13.830;2022-10-03T15:07:35;14.30;1.00
7214;DHT22;3648;50.614;13.830;2022-10-03T15:10:08;14.30;1.00
7214;DHT22;3648;50.614;13.830;2022-10-03T15:12:40;14.30;1.00
7214;DHT22;3648;50.614;13.830;2022-10-03T15:15:14;14.20;1.00
7214;DHT22;3648;50.614;13.830;2022-10-03T15:17:47;14.20;1.00
7214;DHT22;3648;50.614;13.830;2022-10-03T15:20:19;14.20;1.00
7214;DHT22;3648;50.614;13.830;2022-10-03T15:22:53;14.10;1.00
7214;DHT22;3648;50.614;13.830;2022-10-03T15:25:26;14.10;1.00
7214;DHT22;3648;50.614;13.830;2022-10-03T15:28:00;14.10;1.00
7214;DHT22;3648;50.614;13.830;2022-10-03T15:30:32;14.00;1.00
7214;DHT22;3648;50.614;13.830;2022-10-03T15:33:05;13.90;1.00
7214;DHT22;3648;50.614;13.830;2022-10-03T15:35:39;13.90;1.00
7214;DHT22;3648;50.614;13.830;2022-10-03T15:38:12;13.80;1.00
7214;DHT22;3648;50.614;13.830;2022-10-03T15:40:45;13.80;1.00
7214;DHT22;3648;50.614;13.830;2022-10-03T15:43:27;13.80;1.00
7214;DHT22;3648;50.614;13.830;2022-10-03T15:46:00;13.80;1.00
7214;DHT22;3648;50.614;13.830;2022-10-03T15:48:29;13.70;1.00
7214;DHT22;3648;50.614;13.830;2022-10-03T15:50:58;13.70;1.00
7214;DHT22;3648;50.614;13.830;2022-10-03T15:53:29;13.60;1.00
7214;DHT22;3648;50.614;13.830;2022-10-03T15:56:06;13.60;1.00
7214;DHT22;3648;50.614;13.830;2022-10-03T15:58:35;13.50;1.00
7214;DHT22;3648;50.614;13.830;2022-10-03T16:01:06;13.50;1.00
7214;DHT22;3648;50.614;13.830;2022-10-03T16:03:41;13.50;1.00
7214;DHT22;3648;50.614;13.830;2022-10-03T16:06:15;13.50;1.00
7214;DHT22;3648;50.614;13.830;2022-10-03T16:08:53;13.50;1.00
7214;DHT22;3648;50.614;13.830;2022-10-03T16:11:25;13.60;1.00
7214;DHT22;3648;50.614;13.830;2022-10-03T16:14:05;13.50;1.00
7214;DHT22;3648;50.614;13.830;2022-10-03T16:16:39;13.50;1.00
7214;DHT22;3648;50.614;13.830;2022-10-03T16:19:26;13.50;1.00
7214;DHT22;3648;50.614;13.830;2022-10-03T16:22:08;13.40;1.00
7214;DHT22;3648;50.614;13.830;2022-10-03T16:24:42;13.40;1.00
7214;DHT22;3648;50.614;13.830;2022-10-03T16:27:15;13.40;1.00
7214;DHT22;3648;50.614;13.830;2022-10-03T16:29:49;13.40;1.00
7214;DHT22;3648;50.614;13.830;2022-10-03T16:32:22;13.30;1.00
7214;DHT22;3648;50.614;13.830;2022-10-03T16:34:51;13.30;1.00
7214;DHT22;3648;50.614;13.830;2022-10-03T16:37:23;13.30;1.00
7214;DHT22;3648;50.614;13.830;2022-10-03T16:39:56;13.20;1.00
7214;DHT22;3648;50.614;13.830;2022-10-03T16:42:35;13.20;1.00
7214;DHT22;3648;50.614;13.830;2022-10-03T16:45:12;13.10;1.00
7214;DHT22;3648;50.614;13.830;2022-10-03T16:47:46;13.10;1.00
7214;DHT22;3648;50.614;13.830;2022-10-03T16:50:41;13.10;1.00
7214;DHT22;3648;50.614;13.830;2022-10-03T16:53:14;13.00;1.00
7214;DHT22;3648;50.614;13.830;2022-10-03T16:55:46;13.00;1.00
7214;DHT22;3648;50.614;13.830;2022-10-03T16:58:18;13.00;1.00
7214;DHT22;3648;50.614;13.830;2022-10-03T17:00:54;13.00;1.00
7214;DHT22;3648;50.614;13.830;2022-10-03T17:03:25;13.00;1.00
7214;DHT22;3648;50.614;13.830;2022-10-03T17:05:55;12.90;1.00
7214;DHT22;3648;50.614;13.830;2022-10-03T17:08:31;12.90;1.00
7214;DHT22;3648;50.614;13.830;2022-10-03T17:11:03;12.90;1.00
7214;DHT22;3648;50.614;13.830;2022-10-03T17:13:40;12.90;1.00
7214;DHT22;3648;50.614;13.830;2022-10-03T17:16:13;13.00;1.00
7214;DHT22;3648;50.614;13.830;2022-10-03T17:18:48;12.90;1.00
7214;DHT22;3648;50.614;13.830;2022-10-03T17:21:22;12.90;1.00
7214;DHT22;3648;50.614;13.830;2022-10-03T17:24:02;12.90;1.00
7214;DHT22;3648;50.614;13.830;2022-10-03T17:26:36;12.90;1.00
7214;DHT22;3648;50.614;13.830;2022-10-03T17:29:09;12.90;1.00
7214;DHT22;3648;50.614;13.830;2022-10-03T17:31:43;12.90;1.00
7214;DHT22;3648;50.614;13.830;2022-10-03T17:34:16;12.90;1.00
7214;DHT22;3648;50.614;13.830;2022-10-03T17:36:58;12.80;1.00
7214;DHT22;3648;50.614;13.830;2022-10-03T17:39:45;12.90;1.00
7214;DHT22;3648;50.614;13.830;2022-10-03T17:42:30;12.80;1.00
7214;DHT22;3648;50.614;13.830;2022-10-03T17:45:04;12.80;1.00
7214;DHT22;3648;50.614;13.830;2022-10-03T17:47:46;12.80;1.00
7214;DHT22;3648;50.614;13.830;2022-10-03T17:50:22;12.80;1.00
7214;DHT22;3648;50.614;13.830;2022-10-03T17:52:53;12.80;1.00
7214;DHT22;3648;50.614;13.830;2022-10-03T17:55:26;12.80;1.00
7214;DHT22;3648;50.614;13.830;2022-10-03T17:57:58;12.80;1.00
7214;DHT22;3648;50.614;13.830;2022-10-03T18:00:32;12.90;1.00
7214;DHT22;3648;50.614;13.830;2022-10-03T18:03:05;12.80;1.00
7214;DHT22;3648;50.614;13.830;2022-10-03T18:05:39;12.80;1.00
7214;DHT22;3648;50.614;13.830;2022-10-03T18:08:12;12.90;1.00
7214;DHT22;3648;50.614;13.830;2022-10-03T18:10:48;12.80;1.00
7214;DHT22;3648;50.614;13.830;2022-10-03T18:13:21;12.80;1.00
7214;DHT22;3648;50.614;13.830;2022-10-03T18:16:16;12.90;1.00
7214;DHT22;3648;50.614;13.830;2022-10-03T18:19:07;12.80;1.00
7214;DHT22;3648;50.614;13.830;2022-10-03T18:21:56;12.80;1.00
7214;DHT22;3648;50.614;13.830;2022-10-03T18:24:42;12.80;1.00
7214;DHT22;3648;50.614;13.830;2022-10-03T18:27:42;12.80;1.00
7214;DHT22;3648;50.614;13.830;2022-10-03T18:30:18;12.80;1.00
7214;DHT22;3648;50.614;13.830;2022-10-03T18:32:47;12.80;1.00
7214;DHT22;3648;50.614;13.830;2022-10-03T18:35:19;12.80;1.00
7214;DHT22;3648;50.614;13.830;2022-10-03T18:37:58;12.80;1.00
7214;DHT22;3648;50.614;13.830;2022-10-03T18:40:29;12.80;1.00
7214;DHT22;3648;50.614;13.830;2022-10-03T18:43:03;12.80;1.00
7214;DHT22;3648;50.614;13.830;2022-10-03T18:45:35;12.80;1.00
7214;DHT22;3648;50.614;13.830;2022-10-03T18:48:11;12.80;1.00
7214;DHT22;3648;50.614;13.830;2022-10-03T18:50:54;12.80;1.00
7214;DHT22;3648;50.614;13.830;2022-10-03T18:53:30;12.80;1.00
7214;DHT22;3648;50.614;13.830;2022-10-03T18:56:02;12.80;1.00
7214;DHT22;3648;50.614;13.830;2022-10-03T18:58:36;12.80;1.00
7214;DHT22;3648;50.614;13.830;2022-10-03T19:01:11;12.80;1.00
7214;DHT22;3648;50.614;13.830;2022-10-03T19:03:45;12.80;1.00
7214;DHT22;3648;50.614;13.830;2022-10-03T19:06:20;12.80;1.00
7214;DHT22;3648;50.614;13.830;2022-10-03T19:08:51;12.80;1.00
7214;DHT22;3648;50.614;13.830;2022-10-03T19:11:22;12.80;1.00
7214;DHT22;3648;50.614;13.830;2022-10-03T19:13:58;12.70;1.00
7214;DHT22;3648;50.614;13.830;2022-10-03T19:16:44;12.70;1.00
7214;DHT22;3648;50.614;13.830;2022-10-03T19:19:16;12.70;1.00
7214;DHT22;3648;50.614;13.830;2022-10-03T19:21:49;12.70;1.00
7214;DHT22;3648;50.614;13.830;2022-10-03T19:24:19;12.60;1.00
7214;DHT22;3648;50.614;13.830;2022-10-03T19:26:51;12.60;1.00
7214;DHT22;3648;50.614;13.830;2022-10-03T19:29:23;12.60;1.00
7214;DHT22;3648;50.614;13.830;2022-10-03T19:31:59;12.60;1.00
7214;DHT22;3648;50.614;13.830;2022-10-03T19:34:33;12.60;1.00
7214;DHT22;3648;50.614;13.830;2022-10-03T19:37:06;12.50;1.00
7214;DHT22;3648;50.614;13.830;2022-10-03T19:39:34;12.50;1.00
7214;DHT22;3648;50.614;13.830;2022-10-03T19:42:19;12.50;1.00
7214;DHT22;3648;50.614;13.830;2022-10-03T19:44:54;12.50;1.00
7214;DHT22;3648;50.614;13.830;2022-10-03T19:47:26;12.40;1.00
7214;DHT22;3648;50.614;13.830;2022-10-03T19:50:03;12.50;1.00
7214;DHT22;3648;50.614;13.830;2022-10-03T19:52:31;12.40;1.00
7214;DHT22;3648;50.614;13.830;2022-10-03T19:55:01;12.40;1.00
7214;DHT22;3648;50.614;13.830;2022-10-03T19:57:37;12.40;1.00
7214;DHT22;3648;50.614;13.830;2022-10-03T20:00:23;12.40;1.00
7214;DHT22;3648;50.614;13.830;2022-10-03T20:02:54;12.40;1.00
7214;DHT22;3648;50.614;13.830;2022-10-03T20:05:25;12.40;1.00
7214;DHT22;3648;50.614;13.830;2022-10-03T20:07:59;12.40;1.00
7214;DHT22;3648;50.614;13.830;2022-10-03T20:10:36;12.30;1.00
7214;DHT22;3648;50.614;13.830;2022-10-03T20:13:07;12.30;1.00
7214;DHT22;3648;50.614;13.830;2022-10-03T20:15:40;12.30;1.00
7214;DHT22;3648;50.614;13.830;2022-10-03T20:18:21;12.30;1.00
7214;DHT22;3648;50.614;13.830;2022-10-03T20:20:52;12.20;1.00
7214;DHT22;3648;50.614;13.830;2022-10-03T20:23:22;12.20;1.00
7214;DHT22;3648;50.614;13.830;2022-10-03T20:25:53;12.20;1.00
7214;DHT22;3648;50.614;13.830;2022-10-03T20:28:28;12.20;1.00
7214;DHT22;3648;50.614;13.830;2022-10-03T20:31:01;12.20;1.00